Time;durP1;ratioP1;P1;durP2;ratioP2;P2;SDS_P1;SDS_P2;PMS_P1;PMS_P2;Temp;Humidity;BMP_temperature;BMP_pressure;BME280_temperature;BME280_humidity;BME280_pressure;Samples;Min_cycle;Max_cycle;Signal;HPM_P1;HPM_P2
2023/11/27 00:01:10;;;;;;;4.38;2.63;;;2.40;99.90;;;;;;5079460;28;20044;-63
2023/11/27 00:03:36;;;;;;;5.82;3.05;;;2.40;99.90;;;;;;5077332;28;20165;-63
2023/11/27 00:06:02;;;;;;;4.97;3.10;;;2.40;99.90;;;;;;5080530;28;20040;-64
2023/11/27 00:08:28;;;;;;;4.30;3.50;;;2.40;99.90;;;;;;5078688;28;20515;-64
2023/11/27 00:10:53;;;;;;;6.85;3.05;;;2.40;99.90;;;;;;5080855;28;20582;-64
2023/11/27 00:13:19;;;;;;;8.52;3.03;;;2.40;99.90;;;;;;5078238;28;20067;-62
2023/11/27 00:15:45;;;;;;;6.95;3.20;;;2.40;99.90;;;;;;5079386;28;20052;-61
2023/11/27 00:18:10;;;;;;;7.25;3.88;;;2.40;99.90;;;;;;5069592;28;20025;-62
2023/11/27 00:20:36;;;;;;;8.85;4.18;;;2.40;99.90;;;;;;5067479;28;20040;-64
2023/11/27 00:23:02;;;;;;;5.82;3.70;;;2.40;99.90;;;;;;5067919;28;20041;-64
2023/11/27 00:25:28;;;;;;;7.68;4.47;;;2.40;99.90;;;;;;5067279;28;20080;-63
2023/11/27 00:27:53;;;;;;;10.25;3.95;;;2.40;99.90;;;;;;5064486;28;20071;-61
2023/11/27 00:30:19;;;;;;;6.63;3.20;;;2.40;99.90;;;;;;5063258;28;20044;-64
2023/11/27 00:32:45;;;;;;;9.90;4.50;;;2.40;99.90;;;;;;5064832;28;20127;-63
2023/11/27 00:35:10;;;;;;;9.45;4.30;;;2.40;99.90;;;;;;5067003;28;20541;-61
2023/11/27 00:37:36;;;;;;;8.60;4.45;;;2.40;99.90;;;;;;5064025;28;20082;-64
2023/11/27 00:40:02;;;;;;;9.52;4.80;;;2.40;99.90;;;;;;5069289;28;20436;-64
2023/11/27 00:42:27;;;;;;;9.05;4.35;;;2.40;99.90;;;;;;5066183;28;20040;-65
2023/11/27 00:44:53;;;;;;;7.95;3.90;;;2.30;99.90;;;;;;5066961;28;20060;-64
2023/11/27 00:47:19;;;;;;;16.05;3.90;;;2.40;99.90;;;;;;5064696;28;20094;-63
2023/11/27 00:49:44;;;;;;;9.15;3.55;;;2.30;99.90;;;;;;5065517;28;20039;-62
2023/11/27 00:52:10;;;;;;;13.15;3.53;;;2.30;99.90;;;;;;5065148;28;20037;-64
2023/11/27 00:54:36;;;;;;;14.43;3.38;;;2.30;99.90;;;;;;5067003;28;20049;-64
2023/11/27 00:57:01;;;;;;;9.40;3.30;;;2.30;99.90;;;;;;5063675;28;20083;-62
2023/11/27 00:59:27;;;;;;;8.13;3.25;;;2.30;99.90;;;;;;5066840;28;20045;-63
2023/11/27 01:01:52;;;;;;;11.43;3.45;;;2.30;99.90;;;;;;5063294;28;20504;-60
2023/11/27 01:04:18;;;;;;;5.90;3.55;;;2.20;99.90;;;;;;5066506;28;20051;-60
2023/11/27 01:06:43;;;;;;;5.82;2.85;;;2.30;99.90;;;;;;5063596;28;20504;-59
2023/11/27 01:09:11;;;;;;;8.13;2.90;;;2.20;99.90;;;;;;5065022;28;20115;-64
2023/11/27 01:11:38;;;;;;;7.03;2.63;;;2.30;99.90;;;;;;5064463;28;20068;-63
2023/11/27 01:14:03;;;;;;;14.68;2.90;;;2.30;99.90;;;;;;5065384;28;20124;-63
2023/11/27 01:16:29;;;;;;;5.80;2.38;;;2.30;99.90;;;;;;5065019;28;20131;-63
2023/11/27 01:18:54;;;;;;;6.63;2.38;;;2.30;99.90;;;;;;5064325;28;20102;-63
2023/11/27 01:21:20;;;;;;;7.45;3.22;;;2.40;99.90;;;;;;5070772;28;20040;-62
2023/11/27 01:23:45;;;;;;;7.90;2.55;;;2.40;99.90;;;;;;5066824;28;20087;-63
2023/11/27 01:26:11;;;;;;;7.47;2.78;;;2.40;99.90;;;;;;5065200;28;20381;-61
2023/11/27 01:28:37;;;;;;;7.93;2.60;;;2.40;99.90;;;;;;5063454;28;20040;-62
2023/11/27 01:31:05;;;;;;;5.28;2.80;;;2.30;99.90;;;;;;5065110;28;20044;-64
2023/11/27 01:33:31;;;;;;;6.80;2.80;;;2.30;99.90;;;;;;5063093;28;20040;-61
2023/11/27 01:35:57;;;;;;;11.18;2.78;;;2.40;99.90;;;;;;5065926;28;20800;-63
2023/11/27 01:38:22;;;;;;;10.20;3.38;;;2.40;99.90;;;;;;5062169;28;20060;-64
2023/11/27 01:40:48;;;;;;;8.25;3.13;;;2.40;99.90;;;;;;5069756;28;20044;-64
2023/11/27 01:43:17;;;;;;;21.20;5.10;;;2.40;99.90;;;;;;5066345;28;20085;-63
2023/11/27 01:45:51;;;;;;;10.45;3.72;;;2.30;99.90;;;;;;5068010;28;20131;-64
2023/11/27 01:48:19;;;;;;;8.30;3.38;;;2.30;99.90;;;;;;5063402;28;20040;-65
2023/11/27 01:50:44;;;;;;;6.20;3.10;;;2.30;99.90;;;;;;5065282;28;20466;-66
2023/11/27 01:53:10;;;;;;;12.63;3.15;;;2.30;99.90;;;;;;5064375;28;20029;-63
2023/11/27 01:55:39;;;;;;;8.75;3.10;;;2.30;99.90;;;;;;5065379;28;20074;-67
2023/11/27 01:58:04;;;;;;;9.30;3.72;;;2.30;99.90;;;;;;5060713;28;20044;-64
2023/11/27 02:00:30;;;;;;;23.02;4.28;;;2.30;99.90;;;;;;5063591;28;20055;-63
2023/11/27 02:02:57;;;;;;;10.32;3.85;;;2.30;99.90;;;;;;5062331;28;20068;-64
2023/11/27 02:05:23;;;;;;;10.18;3.28;;;2.30;99.90;;;;;;5065040;28;20742;-63
2023/11/27 02:07:49;;;;;;;6.45;2.95;;;2.30;99.90;;;;;;5061328;28;20068;-67
2023/11/27 02:10:14;;;;;;;9.60;3.42;;;2.30;99.90;;;;;;5064492;28;20052;-66
2023/11/27 02:12:40;;;;;;;11.32;3.47;;;2.20;99.90;;;;;;5064716;28;20036;-64
2023/11/27 02:15:06;;;;;;;9.35;3.33;;;2.20;99.90;;;;;;5064721;28;20052;-67
2023/11/27 02:17:33;;;;;;;6.72;3.00;;;2.20;99.90;;;;;;5061527;28;20078;-63
2023/11/27 02:19:58;;;;;;;8.18;3.70;;;2.20;99.90;;;;;;5064855;28;20044;-64
2023/11/27 02:22:24;;;;;;;5.05;3.42;;;2.20;99.90;;;;;;5061542;28;20044;-61
2023/11/27 02:24:49;;;;;;;9.25;3.03;;;2.20;99.90;;;;;;5064619;28;20052;-65
2023/11/27 02:27:15;;;;;;;11.60;4.13;;;2.20;99.90;;;;;;5061056;28;20041;-64
2023/11/27 02:29:41;;;;;;;12.02;3.75;;;2.20;99.90;;;;;;5065092;28;20063;-65
2023/11/27 02:32:06;;;;;;;10.38;3.67;;;2.20;99.90;;;;;;5060955;28;20040;-64
2023/11/27 02:34:33;;;;;;;6.07;3.28;;;2.20;99.90;;;;;;5064850;28;20064;-65
2023/11/27 02:36:59;;;;;;;6.07;3.30;;;2.20;99.90;;;;;;5061918;28;20052;-64
2023/11/27 02:39:25;;;;;;;13.80;3.85;;;2.10;99.90;;;;;;5064340;28;20044;-64
2023/11/27 02:41:50;;;;;;;9.55;3.30;;;2.20;99.90;;;;;;5062522;28;20509;-67
2023/11/27 02:44:16;;;;;;;9.93;3.88;;;2.20;99.90;;;;;;5064859;28;20078;-66
2023/11/27 02:46:41;;;;;;;5.55;2.97;;;2.20;99.90;;;;;;5062438;28;20051;-63
2023/11/27 02:49:07;;;;;;;8.35;3.30;;;2.20;99.90;;;;;;5063232;28;20698;-64
2023/11/27 02:51:40;;;;;;;12.23;3.90;;;2.30;99.90;;;;;;5063456;28;20492;-63
2023/11/27 02:54:07;;;;;;;5.28;3.17;;;2.20;99.90;;;;;;5063276;28;20040;-65
2023/11/27 02:56:32;;;;;;;7.90;3.13;;;2.30;99.90;;;;;;5062350;28;20052;-66
2023/11/27 02:58:58;;;;;;;7.15;3.13;;;2.20;99.90;;;;;;5061791;28;20036;-63
2023/11/27 03:01:27;;;;;;;9.68;3.70;;;2.30;99.90;;;;;;5068761;28;20048;-61
2023/11/27 03:03:53;;;;;;;9.45;3.00;;;2.30;99.90;;;;;;5063342;28;20040;-60
2023/11/27 03:06:18;;;;;;;10.70;3.08;;;2.30;99.90;;;;;;5063950;28;20052;-61
2023/11/27 03:08:44;;;;;;;7.65;3.38;;;2.30;99.90;;;;;;5060789;28;20039;-63
2023/11/27 03:11:11;;;;;;;12.27;3.60;;;2.40;99.90;;;;;;5063720;28;20519;-63
2023/11/27 03:13:37;;;;;;;7.82;3.00;;;2.30;99.90;;;;;;5060520;28;20052;-61
2023/11/27 03:16:03;;;;;;;8.95;3.42;;;2.40;99.90;;;;;;5063687;28;20545;-63
2023/11/27 03:18:28;;;;;;;8.48;3.30;;;2.40;99.90;;;;;;5059896;28;20049;-61
2023/11/27 03:20:54;;;;;;;7.93;2.97;;;2.40;99.90;;;;;;5063388;28;20045;-62
2023/11/27 03:23:20;;;;;;;8.75;3.53;;;2.40;99.90;;;;;;5062389;28;20110;-61
2023/11/27 03:25:45;;;;;;;6.38;3.80;;;2.40;99.90;;;;;;5064200;28;20075;-61
2023/11/27 03:28:11;;;;;;;7.68;3.30;;;2.40;99.90;;;;;;5061644;28;20040;-64
2023/11/27 03:30:36;;;;;;;6.78;3.20;;;2.40;99.90;;;;;;5064299;28;20625;-62
2023/11/27 03:33:02;;;;;;;7.65;3.30;;;2.50;99.90;;;;;;5060242;28;20033;-63
2023/11/27 03:35:27;;;;;;;6.47;3.30;;;2.40;99.90;;;;;;5064259;28;20036;-62
2023/11/27 03:37:53;;;;;;;5.68;3.40;;;2.40;99.90;;;;;;5060376;28;20047;-63
2023/11/27 03:40:19;;;;;;;10.13;3.70;;;2.50;99.90;;;;;;5063418;28;20040;-63
2023/11/27 03:42:44;;;;;;;13.38;3.58;;;2.40;99.90;;;;;;5060273;28;20044;-62
2023/11/27 03:45:10;;;;;;;6.50;3.55;;;2.50;99.90;;;;;;5064054;28;20138;-63
2023/11/27 03:47:35;;;;;;;4.97;3.05;;;2.50;99.90;;;;;;5060181;28;20044;-62
2023/11/27 03:50:01;;;;;;;8.68;3.90;;;2.50;99.90;;;;;;5063806;28;20658;-62
2023/11/27 03:52:29;;;;;;;7.00;3.45;;;2.50;99.90;;;;;;5059965;28;20526;-63
2023/11/27 03:54:55;;;;;;;8.68;3.55;;;2.50;99.90;;;;;;5065383;28;20094;-64
2023/11/27 03:57:21;;;;;;;7.05;3.75;;;2.50;99.90;;;;;;5063608;28;20048;-64
2023/11/27 03:59:48;;;;;;;9.27;3.13;;;2.50;99.90;;;;;;5068216;28;20045;-61
2023/11/27 04:02:13;;;;;;;7.30;3.53;;;2.50;99.90;;;;;;5062442;28;20037;-63
2023/11/27 04:04:39;;;;;;;6.10;3.22;;;2.50;99.90;;;;;;5068037;28;20037;-59
2023/11/27 04:07:05;;;;;;;5.22;3.05;;;2.50;99.90;;;;;;5063913;28;20041;-64
2023/11/27 04:09:32;;;;;;;12.07;3.70;;;2.40;99.90;;;;;;5067117;28;20036;-63
2023/11/27 04:11:58;;;;;;;6.32;3.17;;;2.50;99.90;;;;;;5064817;28;20041;-63
2023/11/27 04:14:23;;;;;;;7.47;2.92;;;2.50;99.90;;;;;;5067735;28;20040;-63
2023/11/27 04:16:49;;;;;;;6.63;2.95;;;2.50;99.90;;;;;;5064178;28;20086;-63
2023/11/27 04:19:15;;;;;;;8.98;3.17;;;2.50;99.90;;;;;;5066213;28;20512;-64
2023/11/27 04:21:40;;;;;;;7.28;3.20;;;2.50;99.90;;;;;;5070947;28;20040;-65
2023/11/27 04:24:06;;;;;;;7.88;3.85;;;2.40;99.90;;;;;;5064707;28;20036;-64
2023/11/27 04:26:32;;;;;;;7.28;3.45;;;2.40;99.90;;;;;;5065858;28;20052;-65
2023/11/27 04:28:58;;;;;;;8.20;3.80;;;2.30;99.90;;;;;;5062199;28;20037;-67
2023/11/27 04:31:24;;;;;;;7.82;3.83;;;2.30;99.90;;;;;;5063346;28;20049;-65
2023/11/27 04:33:50;;;;;;;7.53;3.70;;;2.30;99.90;;;;;;5063083;28;20097;-65
2023/11/27 04:36:18;;;;;;;8.98;3.65;;;2.30;99.90;;;;;;5066288;28;20048;-65
2023/11/27 04:38:44;;;;;;;9.88;3.80;;;2.30;99.90;;;;;;5061480;28;20079;-65
2023/11/27 04:41:10;;;;;;;6.80;3.85;;;2.30;99.90;;;;;;5066838;28;20129;-65
2023/11/27 04:43:36;;;;;;;14.25;4.18;;;2.40;99.90;;;;;;5062672;28;20514;-63
2023/11/27 04:46:02;;;;;;;7.10;3.72;;;2.40;99.90;;;;;;5066497;28;20041;-62
2023/11/27 04:48:27;;;;;;;8.82;4.10;;;2.40;99.90;;;;;;5066251;28;20048;-62
2023/11/27 04:50:53;;;;;;;17.55;4.25;;;2.40;99.90;;;;;;5070149;28;20051;-64
2023/11/27 04:53:19;;;;;;;11.63;4.28;;;2.40;99.90;;;;;;5063288;28;20090;-65
2023/11/27 04:55:44;;;;;;;11.00;4.40;;;2.30;99.90;;;;;;5066968;28;20037;-63
2023/11/27 04:58:10;;;;;;;7.88;4.43;;;2.30;99.90;;;;;;5061121;28;20503;-63
2023/11/27 05:00:36;;;;;;;9.43;4.40;;;2.30;99.90;;;;;;5065850;28;20033;-64
2023/11/27 05:03:02;;;;;;;10.30;4.28;;;2.30;99.90;;;;;;5067168;28;20035;-61
2023/11/27 05:05:28;;;;;;;11.93;4.90;;;2.30;99.90;;;;;;5066663;28;20428;-63
2023/11/27 05:07:54;;;;;;;8.88;4.25;;;2.30;99.90;;;;;;5063865;28;20048;-61
2023/11/27 05:10:19;;;;;;;6.70;4.28;;;2.30;99.90;;;;;;5065108;28;20037;-64
2023/11/27 05:12:45;;;;;;;11.05;5.53;;;2.30;99.90;;;;;;5061646;28;20028;-65
2023/11/27 05:15:11;;;;;;;9.57;4.60;;;2.30;99.90;;;;;;5065721;28;20047;-61
2023/11/27 05:17:37;;;;;;;10.27;4.55;;;2.30;99.90;;;;;;5061044;28;20040;-65
2023/11/27 05:20:03;;;;;;;6.22;4.65;;;2.30;99.90;;;;;;5066757;28;20381;-63
2023/11/27 05:22:29;;;;;;;7.72;4.50;;;2.30;99.90;;;;;;5063558;28;20036;-64
2023/11/27 05:24:55;;;;;;;7.93;4.55;;;2.30;99.90;;;;;;5067298;28;20039;-62
2023/11/27 05:27:22;;;;;;;8.65;4.68;;;2.30;99.90;;;;;;5059197;28;20555;-64
2023/11/27 05:29:48;;;;;;;8.63;4.78;;;2.30;99.90;;;;;;5066387;28;20040;-65
2023/11/27 05:32:15;;;;;;;9.48;4.97;;;2.30;99.90;;;;;;5059649;28;20040;-65
2023/11/27 05:34:41;;;;;;;7.55;4.60;;;2.30;99.90;;;;;;5059685;28;20044;-66
2023/11/27 05:37:08;;;;;;;9.90;5.72;;;2.30;99.90;;;;;;5071304;28;20060;-61
2023/11/27 05:39:35;;;;;;;11.00;5.53;;;2.30;99.90;;;;;;5072154;28;20093;-64
2023/11/27 05:42:02;;;;;;;13.43;5.88;;;2.30;99.90;;;;;;5062421;28;20523;-67
2023/11/27 05:44:29;;;;;;;8.95;5.63;;;2.30;99.90;;;;;;5065152;28;20040;-65
2023/11/27 05:46:54;;;;;;;12.57;6.20;;;2.30;99.90;;;;;;5065516;28;20045;-63
2023/11/27 05:49:20;;;;;;;9.57;6.00;;;2.30;99.90;;;;;;5065329;28;20049;-66
2023/11/27 05:51:46;;;;;;;13.05;6.00;;;2.30;99.90;;;;;;5064277;28;20407;-65
2023/11/27 05:54:12;;;;;;;10.82;5.85;;;2.30;99.90;;;;;;5071769;28;20039;-62
2023/11/27 05:56:37;;;;;;;12.80;6.68;;;2.30;99.90;;;;;;5064433;28;20122;-63
2023/11/27 05:59:03;;;;;;;11.73;6.10;;;2.30;99.90;;;;;;5060280;28;20060;-64
2023/11/27 06:01:29;;;;;;;11.30;6.72;;;2.40;99.90;;;;;;5064883;28;20113;-63
2023/11/27 06:03:55;;;;;;;10.45;6.47;;;2.40;99.90;;;;;;5059930;28;20736;-63
2023/11/27 06:06:21;;;;;;;10.55;5.50;;;2.40;99.90;;;;;;5060333;28;20056;-64
2023/11/27 06:08:48;;;;;;;11.82;5.93;;;2.40;99.90;;;;;;5064246;28;20037;-65
2023/11/27 06:11:13;;;;;;;8.57;5.32;;;2.40;99.90;;;;;;5065228;28;20153;-63
2023/11/27 06:13:41;;;;;;;13.18;6.95;;;2.40;99.90;;;;;;5061066;28;20029;-65
2023/11/27 06:16:09;;;;;;;15.45;6.45;;;2.30;99.90;;;;;;5064577;28;20037;-63
2023/11/27 06:18:35;;;;;;;9.98;6.50;;;2.30;99.90;;;;;;5060549;28;20044;-64
2023/11/27 06:21:00;;;;;;;10.52;6.20;;;2.30;99.90;;;;;;5065241;28;20048;-65
2023/11/27 06:23:26;;;;;;;10.90;6.22;;;2.30;99.90;;;;;;5056644;28;20513;-64
2023/11/27 06:25:52;;;;;;;16.38;5.18;;;2.30;99.90;;;;;;5063724;28;20044;-63
2023/11/27 06:28:18;;;;;;;8.50;5.22;;;2.30;99.90;;;;;;5058723;28;20111;-63
2023/11/27 06:30:44;;;;;;;10.75;4.80;;;2.30;99.90;;;;;;5064475;28;20119;-62
2023/11/27 06:33:09;;;;;;;8.00;4.80;;;2.30;99.90;;;;;;5058063;28;20025;-63
2023/11/27 06:35:35;;;;;;;9.15;5.35;;;2.30;99.90;;;;;;5064644;28;20067;-62
2023/11/27 06:38:02;;;;;;;5.93;4.30;;;2.20;99.90;;;;;;5064287;28;20032;-61
2023/11/27 06:40:28;;;;;;;9.35;4.75;;;2.20;99.90;;;;;;5063518;28;20044;-61
2023/11/27 06:42:55;;;;;;;8.88;4.57;;;2.20;99.90;;;;;;5064011;28;20585;-63
2023/11/27 06:45:21;;;;;;;10.88;4.93;;;2.20;99.90;;;;;;5064312;28;20114;-61
2023/11/27 06:47:48;;;;;;;11.13;5.22;;;2.20;99.90;;;;;;5059180;28;20036;-62
2023/11/27 06:50:14;;;;;;;8.35;4.13;;;2.20;99.90;;;;;;5064714;28;20606;-62
2023/11/27 06:52:40;;;;;;;6.50;3.85;;;2.20;99.90;;;;;;5057811;28;20040;-62
2023/11/27 06:55:06;;;;;;;8.82;4.22;;;2.10;99.90;;;;;;5063872;28;20040;-62
2023/11/27 06:57:32;;;;;;;7.05;4.63;;;2.10;99.90;;;;;;5058489;28;20044;-62
2023/11/27 06:59:58;;;;;;;9.82;4.47;;;2.10;99.90;;;;;;5063065;28;20515;-62
2023/11/27 07:02:25;;;;;;;9.45;4.40;;;2.20;99.90;;;;;;5061447;28;20040;-64
2023/11/27 07:04:51;;;;;;;7.63;3.90;;;2.20;99.90;;;;;;5063562;28;20660;-64
2023/11/27 07:07:17;;;;;;;5.35;3.55;;;2.10;99.90;;;;;;5058669;28;20068;-64
2023/11/27 07:09:42;;;;;;;6.95;4.32;;;2.10;99.90;;;;;;5064045;28;20435;-63
2023/11/27 07:12:08;;;;;;;6.53;3.88;;;2.10;99.90;;;;;;5060687;28;20500;-63
2023/11/27 07:14:35;;;;;;;6.10;3.70;;;2.10;99.90;;;;;;5063693;28;20060;-64
2023/11/27 07:17:00;;;;;;;7.10;4.53;;;2.10;99.90;;;;;;5059405;28;20044;-63
2023/11/27 07:19:26;;;;;;;7.72;4.63;;;2.10;99.90;;;;;;5064014;28;20521;-63
2023/11/27 07:21:52;;;;;;;8.73;4.25;;;2.10;99.90;;;;;;5061735;28;20039;-65
2023/11/27 07:24:18;;;;;;;7.72;4.25;;;2.10;99.90;;;;;;5062895;28;20040;-63
2023/11/27 07:26:43;;;;;;;9.38;4.55;;;2.10;99.90;;;;;;5061456;28;20044;-64
2023/11/27 07:29:10;;;;;;;7.88;4.07;;;2.10;99.90;;;;;;5071856;28;20039;-65
2023/11/27 07:31:35;;;;;;;9.55;4.50;;;2.10;99.90;;;;;;5068548;28;20044;-65
2023/11/27 07:34:02;;;;;;;7.43;4.75;;;2.10;99.90;;;;;;5064758;28;20690;-63
2023/11/27 07:36:28;;;;;;;6.97;4.65;;;2.10;99.90;;;;;;5065282;28;20048;-65
2023/11/27 07:38:55;;;;;;;12.68;4.78;;;2.10;99.90;;;;;;5069361;28;20036;-65
2023/11/27 07:41:22;;;;;;;6.88;4.40;;;2.10;99.90;;;;;;5070670;28;20055;-63
2023/11/27 07:43:48;;;;;;;12.60;5.10;;;2.10;99.90;;;;;;5066247;28;20033;-63
2023/11/27 07:46:14;;;;;;;13.77;4.72;;;2.10;99.90;;;;;;5068357;28;20047;-62
2023/11/27 07:48:42;;;;;;;7.40;4.53;;;2.10;99.90;;;;;;5071085;28;20048;-65
2023/11/27 07:51:09;;;;;;;12.77;5.85;;;2.00;99.90;;;;;;5066488;28;20123;-62
2023/11/27 07:53:35;;;;;;;11.48;5.57;;;2.10;99.90;;;;;;5062637;28;20103;-64
2023/11/27 07:56:01;;;;;;;11.30;4.82;;;2.00;99.90;;;;;;5061880;28;20691;-64
2023/11/27 07:58:27;;;;;;;13.07;4.40;;;2.00;99.90;;;;;;5062126;28;20071;-65
2023/11/27 08:00:53;;;;;;;8.02;4.05;;;2.00;99.90;;;;;;5074757;28;20063;-67
2023/11/27 08:03:20;;;;;;;9.82;4.38;;;2.00;99.90;;;;;;5068240;28;20500;-66
2023/11/27 08:05:47;;;;;;;9.70;4.70;;;2.00;99.90;;;;;;5062273;28;20052;-64
2023/11/27 08:08:17;;;;;;;9.90;4.65;;;2.00;99.90;;;;;;5064594;28;20086;-64
2023/11/27 08:10:44;;;;;;;12.15;4.55;;;2.00;99.90;;;;;;5062234;28;20036;-65
2023/11/27 08:13:11;;;;;;;10.68;4.78;;;2.00;99.90;;;;;;5059200;28;20029;-62
2023/11/27 08:15:40;;;;;;;11.48;4.25;;;1.90;99.90;;;;;;5064530;28;20036;-62
2023/11/27 08:18:06;;;;;;;5.82;3.45;;;1.90;99.90;;;;;;5065996;28;20094;-56
2023/11/27 08:20:32;;;;;;;7.13;4.60;;;1.90;99.90;;;;;;5063454;28;20033;-64
2023/11/27 08:22:59;;;;;;;8.38;3.70;;;2.00;99.90;;;;;;5065069;28;20519;-61
2023/11/27 08:25:28;;;;;;;8.77;3.42;;;1.90;99.90;;;;;;5069958;28;20043;-62
2023/11/27 08:27:55;;;;;;;6.32;3.72;;;1.90;99.90;;;;;;5062537;28;20041;-64
2023/11/27 08:30:22;;;;;;;9.43;3.17;;;1.80;99.90;;;;;;5066893;28;20115;-63
2023/11/27 08:32:50;;;;;;;3.78;2.92;;;1.80;99.90;;;;;;5065889;28;20112;-58
2023/11/27 08:35:19;;;;;;;4.88;2.85;;;1.80;99.90;;;;;;5065374;28;20459;-63
2023/11/27 08:37:45;;;;;;;4.03;2.50;;;1.70;99.90;;;;;;5061190;28;20032;-66
2023/11/27 08:40:12;;;;;;;7.63;3.10;;;1.70;99.90;;;;;;5066072;28;20039;-63
2023/11/27 08:42:39;;;;;;;6.18;3.22;;;1.70;99.90;;;;;;5061354;28;20103;-63
2023/11/27 08:45:10;;;;;;;5.38;2.97;;;1.60;99.90;;;;;;5067173;28;20102;-62
2023/11/27 08:47:39;;;;;;;3.67;2.53;;;1.50;99.90;;;;;;5065413;28;20060;-64
2023/11/27 08:50:07;;;;;;;3.55;2.65;;;1.60;99.90;;;;;;5064724;28;20037;-64
2023/11/27 08:52:34;;;;;;;7.15;2.85;;;1.50;99.90;;;;;;5065679;28;20044;-62
2023/11/27 08:55:00;;;;;;;3.30;2.47;;;1.60;99.90;;;;;;5065031;28;20127;-60
2023/11/27 08:57:25;;;;;;;3.75;2.70;;;1.60;99.90;;;;;;5062177;28;20480;-58
2023/11/27 08:59:51;;;;;;;7.88;2.70;;;1.60;99.90;;;;;;5064667;28;20123;-60
2023/11/27 09:02:17;;;;;;;6.97;2.88;;;1.60;99.90;;;;;;5059914;28;20033;-62
2023/11/27 09:04:43;;;;;;;5.40;2.45;;;1.50;99.90;;;;;;5065633;28;20037;-59
2023/11/27 09:07:11;;;;;;;4.47;2.40;;;1.50;99.90;;;;;;5065434;28;20032;-61
2023/11/27 09:09:37;;;;;;;3.40;2.40;;;1.60;99.90;;;;;;5064632;28;20047;-63
2023/11/27 09:12:03;;;;;;;4.10;1.73;;;1.60;99.90;;;;;;5064506;28;20594;-60
2023/11/27 09:14:29;;;;;;;4.05;1.95;;;1.60;99.90;;;;;;5065034;28;20059;-60
2023/11/27 09:16:54;;;;;;;2.95;1.85;;;1.70;99.90;;;;;;5064800;28;20040;-63
2023/11/27 09:19:20;;;;;;;3.42;2.03;;;1.70;99.90;;;;;;5065883;28;20079;-62
2023/11/27 09:21:46;;;;;;;2.88;1.55;;;1.70;99.90;;;;;;5065160;28;20040;-62
2023/11/27 09:24:11;;;;;;;2.60;1.77;;;1.70;99.90;;;;;;5065960;28;20059;-62
2023/11/27 09:26:37;;;;;;;2.22;1.40;;;1.80;99.90;;;;;;5062826;28;20511;-63
2023/11/27 09:29:04;;;;;;;3.47;1.70;;;1.80;99.90;;;;;;5068013;28;20028;-63
2023/11/27 09:31:30;;;;;;;2.55;1.60;;;1.80;99.90;;;;;;5064641;28;20093;-61
2023/11/27 09:33:55;;;;;;;4.32;1.67;;;1.80;99.90;;;;;;5066208;28;20032;-62
2023/11/27 09:36:21;;;;;;;2.30;1.50;;;1.80;99.90;;;;;;5065398;28;20044;-60
2023/11/27 09:38:47;;;;;;;3.10;1.38;;;1.80;99.90;;;;;;5065391;28;20044;-63
2023/11/27 09:41:13;;;;;;;2.13;1.30;;;1.80;99.90;;;;;;5066024;28;20386;-61
2023/11/27 09:43:39;;;;;;;3.75;1.40;;;1.90;99.90;;;;;;5065275;28;20044;-60
2023/11/27 09:46:07;;;;;;;3.75;1.60;;;1.90;99.90;;;;;;5065785;28;20443;-61
2023/11/27 09:48:40;;;;;;;2.67;1.20;;;1.90;99.90;;;;;;5064567;28;20115;-64
2023/11/27 09:51:11;;;;;;;3.03;1.83;;;2.00;99.90;;;;;;5063413;28;20178;-63
2023/11/27 09:53:41;;;;;;;1.85;1.63;;;1.90;99.90;;;;;;5066625;28;20052;-63
2023/11/27 09:56:08;;;;;;;2.72;1.30;;;1.90;99.90;;;;;;5067609;28;20041;-59
2023/11/27 09:58:36;;;;;;;2.50;1.67;;;1.90;99.90;;;;;;5063960;28;20040;-62
2023/11/27 10:01:05;;;;;;;3.15;1.92;;;1.90;99.90;;;;;;5064728;28;20063;-61
2023/11/27 10:03:32;;;;;;;3.55;1.75;;;1.90;99.90;;;;;;5066275;28;20183;-63
2023/11/27 10:05:58;;;;;;;3.47;1.85;;;1.90;99.90;;;;;;5060847;28;20122;-62
2023/11/27 10:08:26;;;;;;;2.90;1.38;;;2.00;99.90;;;;;;5068455;28;20079;-63
2023/11/27 10:10:52;;;;;;;2.28;1.48;;;2.00;99.90;;;;;;5068614;28;20044;-60
2023/11/27 10:13:29;;;;;;;1.95;1.20;;;1.90;99.90;;;;;;5063836;28;20507;-64
2023/11/27 10:15:58;;;;;;;2.33;1.00;;;2.00;99.90;;;;;;5064442;28;20125;-61
2023/11/27 10:18:24;;;;;;;2.10;1.20;;;2.00;99.90;;;;;;5063343;28;20040;-62
2023/11/27 10:20:50;;;;;;;1.63;1.17;;;2.00;99.90;;;;;;5067049;28;20041;-59
2023/11/27 10:23:16;;;;;;;2.58;1.33;;;2.00;99.90;;;;;;5065394;28;20036;-63
2023/11/27 10:25:42;;;;;;;15.40;1.10;;;2.00;99.90;;;;;;5062348;28;20047;-60
2023/11/27 10:28:09;;;;;;;1.38;0.95;;;2.00;99.90;;;;;;5063634;28;20040;-61
2023/11/27 10:30:36;;;;;;;1.67;0.90;;;2.00;99.90;;;;;;5064053;28;20056;-61
2023/11/27 10:33:02;;;;;;;2.28;1.02;;;2.10;99.90;;;;;;5065267;28;20103;-61
2023/11/27 10:35:31;;;;;;;1.52;1.00;;;2.10;99.90;;;;;;5067429;28;20190;-54
2023/11/27 10:37:58;;;;;;;1.48;0.90;;;2.10;99.90;;;;;;5063624;28;20043;-60
2023/11/27 10:40:26;;;;;;;3.53;0.85;;;2.10;99.90;;;;;;5065362;28;20813;-59
2023/11/27 10:42:57;;;;;;;1.55;0.82;;;2.10;99.90;;;;;;5063508;28;20157;-59
2023/11/27 10:45:23;;;;;;;0.85;0.75;;;2.20;99.90;;;;;;5069420;28;20079;-59
2023/11/27 10:47:51;;;;;;;1.20;0.70;;;2.10;99.90;;;;;;5062474;28;20094;-59
2023/11/27 10:50:19;;;;;;;0.73;0.60;;;2.10;99.90;;;;;;5064569;28;20036;-63
2023/11/27 10:52:49;;;;;;;1.13;0.60;;;2.20;99.90;;;;;;5063704;28;20113;-62
2023/11/27 10:55:19;;;;;;;0.68;0.60;;;2.20;99.90;;;;;;5064336;28;20527;-63
2023/11/27 10:57:49;;;;;;;1.58;0.73;;;2.20;99.90;;;;;;5062296;28;20515;-63
2023/11/27 11:03:06;;;;;;;1.38;0.70;;;2.10;99.90;;;;;;5059453;28;20119;-63
2023/11/27 11:05:46;;;;;;;1.45;0.70;;;2.10;99.90;;;;;;5064243;28;20569;-62
2023/11/27 11:08:12;;;;;;;0.75;0.52;;;2.20;99.90;;;;;;5063031;28;20040;-63
2023/11/27 11:10:40;;;;;;;2.85;0.55;;;2.10;99.90;;;;;;5063943;28;20048;-60
2023/11/27 11:13:12;;;;;;;1.77;0.75;;;2.10;99.90;;;;;;5063034;28;20064;-62
2023/11/27 11:16:14;;;;;;;0.93;0.65;;;2.00;99.90;;;;;;5064070;28;20078;-64
2023/11/27 11:18:48;;;;;;;0.50;0.40;;;2.10;99.90;;;;;;5061272;28;20488;-60
2023/11/27 11:21:47;;;;;;;1.05;0.73;;;2.10;99.90;;;;;;5064156;28;20032;-62
2023/11/27 11:24:13;;;;;;;0.95;0.60;;;2.10;99.90;;;;;;5062577;28;20052;-61
2023/11/27 11:27:16;;;;;;;0.90;0.60;;;2.00;99.90;;;;;;5062210;28;20041;-63
2023/11/27 11:29:44;;;;;;;1.90;0.63;;;2.00;99.90;;;;;;5061276;28;20041;-57
2023/11/27 11:32:19;;;;;;;2.53;0.52;;;2.00;99.90;;;;;;5061634;28;20045;-62
2023/11/27 11:34:51;;;;;;;0.77;0.50;;;2.00;99.90;;;;;;5061489;28;20037;-64
2023/11/27 11:37:18;;;;;;;3.33;0.80;;;2.00;99.90;;;;;;5062272;28;20049;-60
2023/11/27 11:39:53;;;;;;;0.60;0.50;;;1.90;99.90;;;;;;5064467;28;20488;-64
2023/11/27 11:42:26;;;;;;;0.50;0.40;;;2.00;99.90;;;;;;5063689;28;20052;-63
2023/11/27 11:45:24;;;;;;;0.55;0.40;;;2.00;99.90;;;;;;5061422;28;20047;-62
2023/11/27 11:47:53;;;;;;;0.35;0.35;;;2.00;99.90;;;;;;5057293;28;20708;-64
2023/11/27 11:50:42;;;;;;;1.17;0.45;;;2.00;99.90;;;;;;5066476;28;20032;-64
2023/11/27 11:53:13;;;;;;;0.90;0.47;;;2.00;99.90;;;;;;5066243;28;20074;-64
2023/11/27 11:55:40;;;;;;;0.95;0.52;;;1.90;99.90;;;;;;5062037;28;20044;-63
2023/11/27 11:58:28;;;;;;;0.50;0.50;;;2.00;99.90;;;;;;5062053;28;20032;-63
2023/11/27 12:01:01;;;;;;;0.45;0.43;;;2.00;99.90;;;;;;5062951;28;20068;-63
2023/11/27 12:03:33;;;;;;;0.60;0.40;;;2.00;99.90;;;;;;5061616;28;20049;-63
2023/11/27 12:06:02;;;;;;;0.52;0.38;;;1.90;99.90;;;;;;5064689;28;20052;-62
2023/11/27 12:08:30;;;;;;;0.57;0.40;;;2.00;99.90;;;;;;5061053;28;20056;-63
2023/11/27 12:10:57;;;;;;;0.52;0.40;;;1.90;99.90;;;;;;5068863;28;20053;-62
2023/11/27 12:13:25;;;;;;;0.65;0.35;;;1.90;99.90;;;;;;5062001;28;20058;-59
2023/11/27 12:15:56;;;;;;;1.55;0.50;;;1.90;99.90;;;;;;5066855;28;20032;-61
2023/11/27 12:18:22;;;;;;;0.57;0.40;;;1.90;99.90;;;;;;5065348;28;20051;-62
2023/11/27 12:20:49;;;;;;;0.70;0.50;;;1.90;99.90;;;;;;5066901;28;20135;-61
2023/11/27 12:23:15;;;;;;;0.63;0.40;;;1.90;99.90;;;;;;5066362;28;20137;-61
2023/11/27 12:25:41;;;;;;;0.30;0.30;;;1.90;99.90;;;;;;5067126;28;20508;-62
2023/11/27 12:28:11;;;;;;;2.50;0.28;;;1.90;99.90;;;;;;5066730;28;20450;-60
2023/11/27 12:30:38;;;;;;;0.50;0.30;;;1.80;99.90;;;;;;5066658;28;20051;-61
2023/11/27 12:33:05;;;;;;;0.73;0.30;;;1.80;99.90;;;;;;5068381;28;20045;-63
2023/11/27 12:35:31;;;;;;;0.50;0.30;;;1.80;99.90;;;;;;5069609;28;20094;-61
2023/11/27 12:38:03;;;;;;;0.20;0.20;;;1.90;99.90;;;;;;5066002;28;20140;-63
2023/11/27 12:40:33;;;;;;;0.55;0.30;;;1.90;99.90;;;;;;5067047;28;20050;-63
2023/11/27 12:43:00;;;;;;;0.65;0.40;;;1.90;99.90;;;;;;5063786;28;20504;-58
2023/11/27 12:45:27;;;;;;;0.63;0.40;;;1.90;99.90;;;;;;5064772;28;20591;-55
2023/11/27 12:47:55;;;;;;;0.30;0.30;;;1.90;99.90;;;;;;5063549;28;20450;-60
2023/11/27 12:50:30;;;;;;;1.75;0.40;;;1.80;99.90;;;;;;5066588;28;20102;-62
2023/11/27 12:53:03;;;;;;;0.32;0.30;;;1.90;99.90;;;;;;5065020;28;20076;-59
2023/11/27 12:55:36;;;;;;;0.20;0.20;;;1.90;99.90;;;;;;5066721;28;20649;-61
2023/11/27 12:58:10;;;;;;;0.30;0.30;;;1.90;99.90;;;;;;5063295;28;20044;-62